Time;durP1;ratioP1;P1;durP2;ratioP2;P2;SDS_P1;SDS_P2;PMS_P1;PMS_P2;Temp;Humidity;BMP_temperature;BMP_pressure;BME280_temperature;BME280_humidity;BME280_pressure;Samples;Min_cycle;Max_cycle;Signal;HPM_P1;HPM_P2
2021/05/05 00:00:17;;;;;;;4.03;0.70;;;;;;;10.74;61.35;98905.99;125726;1096;24541;-62
2021/05/05 00:03:07;;;;;;;2.85;0.50;;;;;;;10.72;61.43;98900.90;125620;1101;24854;-62
2021/05/05 00:05:36;;;;;;;3.47;0.60;;;;;;;10.72;61.51;98911.33;125635;1096;25835;-63
2021/05/05 00:08:07;;;;;;;2.53;0.60;;;;;;;10.71;61.37;98904.21;125635;1096;27238;-62
2021/05/05 00:10:35;;;;;;;;;;;;;;;10.70;61.41;98903.45;125655;1101;22744;-64
2021/05/05 00:13:04;;;;;;;1.47;0.50;;;;;;;10.68;61.53;98908.78;125624;1096;26568;-64
2021/05/05 00:15:34;;;;;;;2.63;0.60;;;;;;;10.68;61.54;98913.63;125716;1101;22758;-64
2021/05/05 00:18:03;;;;;;;2.43;0.63;;;;;;;10.67;61.62;98909.30;125630;1096;27584;-64
2021/05/05 00:20:33;;;;;;;4.98;0.80;;;;;;;10.65;61.82;98909.81;125539;1104;22739;-63
2021/05/05 00:23:02;;;;;;;3.37;0.67;;;;;;;10.64;61.76;98907.52;125512;1096;27167;-63
2021/05/05 00:25:32;;;;;;;3.33;0.63;;;;;;;10.63;61.76;98906.78;125414;1104;24567;-63
2021/05/05 00:28:01;;;;;;;4.90;0.60;;;;;;;10.62;61.84;98905.25;125638;1096;26203;-63
2021/05/05 00:30:31;;;;;;;3.15;0.70;;;;;;;10.61;61.58;98897.39;125525;1101;22907;-64
2021/05/05 00:33:00;;;;;;;3.50;0.60;;;;;;;10.62;61.61;98887.73;125654;1102;22894;-65
2021/05/05 00:35:30;;;;;;;2.93;0.63;;;;;;;10.63;61.80;98883.69;125636;1101;22741;-64
2021/05/05 00:37:59;;;;;;;2.35;0.60;;;;;;;10.65;61.65;98884.70;125746;1101;22740;-63
2021/05/05 00:40:29;;;;;;;2.45;0.70;;;;;;;10.67;61.69;98889.77;125692;1101;22761;-63
2021/05/05 00:42:58;;;;;;;2.35;0.50;;;;;;;10.68;61.74;98891.30;125569;1104;22739;-64
2021/05/05 00:45:27;;;;;;;1.73;0.50;;;;;;;10.68;61.87;98888.50;125670;1096;22771;-63
2021/05/05 00:47:57;;;;;;;2.73;0.50;;;;;;;10.69;61.86;98892.80;125521;1104;22907;-63
2021/05/05 00:50:27;;;;;;;2.60;0.60;;;;;;;10.70;61.98;98891.55;125825;1103;22866;-64
2021/05/05 00:52:56;;;;;;;1.70;0.60;;;;;;;10.70;61.93;98897.13;125642;1102;22786;-62
2021/05/05 00:55:27;;;;;;;2.87;0.63;;;;;;;10.71;61.93;98896.60;125955;1102;22765;-64
2021/05/05 00:57:57;;;;;;;4.03;0.73;;;;;;;10.72;62.12;98884.16;125659;1096;24422;-64
2021/05/05 01:00:27;;;;;;;5.50;0.65;;;;;;;10.74;62.28;98886.45;125899;1102;22813;-63
2021/05/05 01:02:57;;;;;;;4.07;0.50;;;;;;;10.74;62.18;98878.81;125575;1104;22902;-63
2021/05/05 01:05:26;;;;;;;4.90;0.80;;;;;;;10.75;62.12;98868.42;125856;1096;24508;-63
2021/05/05 01:07:56;;;;;;;2.23;0.70;;;;;;;10.77;62.32;98863.08;125714;1104;22782;-64
2021/05/05 01:10:25;;;;;;;4.15;0.68;;;;;;;10.75;62.18;98868.42;125571;1101;23235;-63
2021/05/05 01:12:56;;;;;;;5.20;0.80;;;;;;;10.74;62.50;98850.16;125569;1096;22734;-64
2021/05/05 01:15:26;;;;;;;3.83;0.70;;;;;;;10.73;62.49;98843.05;125710;1096;22923;-63
2021/05/05 01:17:56;;;;;;;5.43;0.90;;;;;;;10.72;62.45;98842.28;125599;1104;22821;-63
2021/05/05 01:20:29;;;;;;;4.63;0.80;;;;;;;10.71;62.35;98840.78;125570;1104;22743;-63
2021/05/05 01:22:58;;;;;;;4.23;0.87;;;;;;;10.69;62.54;98850.94;125623;1102;22729;-64
2021/05/05 01:25:28;;;;;;;4.17;0.77;;;;;;;10.69;62.60;98850.94;125557;1095;22766;-63
2021/05/05 01:27:57;;;;;;;6.80;0.80;;;;;;;10.67;62.65;98868.20;125633;1104;24416;-65
2021/05/05 01:30:27;;;;;;;3.50;0.77;;;;;;;10.69;62.50;98876.82;125871;1096;22765;-64
2021/05/05 01:32:58;;;;;;;3.90;0.60;;;;;;;10.69;62.83;98876.82;125608;1101;22907;-64
2021/05/05 01:35:27;;;;;;;2.30;0.78;;;;;;;10.66;62.64;98869.45;125795;1096;22935;-63
2021/05/05 01:37:57;;;;;;;3.70;0.93;;;;;;;10.67;62.81;98876.58;125627;1104;22819;-64
2021/05/05 01:40:30;;;;;;;3.97;0.80;;;;;;;10.66;62.95;98896.59;125480;1096;22981;-64
2021/05/05 01:43:02;;;;;;;2.60;0.70;;;;;;;10.62;63.24;98896.88;125667;1104;22853;-63
2021/05/05 01:45:32;;;;;;;4.93;0.90;;;;;;;10.60;63.19;98877.09;125650;1096;27680;-64
2021/05/05 01:48:03;;;;;;;6.83;0.78;;;;;;;10.61;62.08;98897.39;125575;1104;22947;-62
2021/05/05 01:50:33;;;;;;;3.67;0.50;;;;;;;10.65;61.67;98890.28;125732;1101;22770;-63
2021/05/05 01:53:03;;;;;;;7.30;0.53;;;;;;;10.68;61.14;98883.66;125630;1101;22737;-63
2021/05/05 01:55:32;;;;;;;;;;;;;;;10.71;60.78;98890.25;125740;1102;22744;-64
2021/05/05 01:58:01;;;;;;;2.50;0.43;;;;;;;10.72;60.81;98884.16;125732;1096;25916;-64
2021/05/05 02:00:32;;;;;;;2.10;0.47;;;;;;;10.72;60.38;98872.98;125475;1104;22907;-64
2021/05/05 02:03:01;;;;;;;4.23;0.30;;;;;;;10.74;60.39;98869.70;125743;1101;22835;-64
2021/05/05 02:05:31;;;;;;;2.17;0.30;;;;;;;10.75;60.28;98871.97;125639;1101;23457;-63
2021/05/05 02:08:00;;;;;;;1.78;0.40;;;;;;;10.75;60.34;98874.77;125490;1096;26235;-64
2021/05/05 02:10:32;;;;;;;3.67;0.43;;;;;;;10.75;60.33;98871.97;125700;1101;22765;-65
2021/05/05 02:13:01;;;;;;;2.50;0.40;;;;;;;10.73;60.38;98868.94;125696;1096;27173;-63
2021/05/05 02:15:30;;;;;;;3.48;0.40;;;;;;;10.72;60.26;98872.25;125665;1101;22817;-64
2021/05/05 02:18:00;;;;;;;6.10;0.40;;;;;;;10.71;60.59;98876.30;125613;1096;22739;-62
2021/05/05 02:20:30;;;;;;;5.00;0.50;;;;;;;10.69;61.07;98876.05;125566;1101;22820;-62
2021/05/05 02:23:00;;;;;;;1.70;0.28;;;;;;;10.65;61.78;98873.53;125655;1101;23496;-65
2021/05/05 02:25:29;;;;;;;2.00;0.30;;;;;;;10.59;62.00;98873.53;125630;1096;22740;-63
2021/05/05 02:27:59;;;;;;;2.80;0.40;;;;;;;10.54;62.50;98862.40;125712;1102;22754;-63
2021/05/05 02:30:29;;;;;;;;;;;;;;;10.48;62.96;98858.87;125721;1101;22764;-65
2021/05/05 02:33:00;;;;;;;2.88;0.40;;;;;;;10.40;63.55;98861.43;125618;1101;23131;-64
2021/05/05 02:35:28;;;;;;;;;;;;;;;10.33;63.53;98867.52;125749;1101;22758;-65
2021/05/05 02:37:58;;;;;;;2.70;0.40;;;;;;;10.26;63.95;98861.72;125802;1101;23161;-64
2021/05/05 02:40:29;;;;;;;2.67;0.57;;;;;;;10.18;64.01;98858.67;125913;1102;22936;-65
2021/05/05 02:42:59;;;;;;;2.47;0.50;;;;;;;10.15;64.20;98858.94;125694;1101;23646;-65
2021/05/05 02:45:29;;;;;;;6.88;0.65;;;;;;;10.09;64.44;98842.19;125783;1102;22942;-63
2021/05/05 02:47:59;;;;;;;5.20;0.40;;;;;;;10.10;64.53;98831.77;125665;1096;22738;-62
2021/05/05 02:50:28;;;;;;;5.73;0.60;;;;;;;10.10;64.83;98826.20;125852;1104;22748;-63
2021/05/05 02:52:57;;;;;;;3.65;0.50;;;;;;;10.10;64.92;98831.77;125701;1102;23377;-64
2021/05/05 02:55:27;;;;;;;6.07;0.50;;;;;;;10.10;65.28;98835.36;125585;1101;22745;-63
2021/05/05 02:57:56;;;;;;;1.93;0.50;;;;;;;10.10;65.48;98838.15;125605;1104;22745;-62
2021/05/05 03:00:26;;;;;;;4.93;0.60;;;;;;;10.09;65.33;98835.85;125551;1102;25421;-63
2021/05/05 03:02:55;;;;;;;3.70;0.73;;;;;;;10.08;65.39;98843.45;125538;1104;22764;-62
2021/05/05 03:05:24;;;;;;;2.90;0.40;;;;;;;10.06;65.57;98843.20;125552;1101;22847;-64
2021/05/05 03:07:54;;;;;;;3.63;0.60;;;;;;;10.07;66.08;98843.97;125607;1104;22812;-65
2021/05/05 03:10:24;;;;;;;3.17;0.50;;;;;;;10.07;66.15;98833.58;125636;1096;22762;-63
2021/05/05 03:12:54;;;;;;;3.77;0.50;;;;;;;10.07;66.08;98832.81;125812;1096;28688;-65
2021/05/05 03:15:23;;;;;;;3.73;0.53;;;;;;;10.07;66.49;98836.37;125455;1096;25977;-63
2021/05/05 03:17:53;;;;;;;2.75;0.45;;;;;;;10.07;66.55;98833.58;125602;1101;22749;-62
2021/05/05 03:20:23;;;;;;;4.90;0.50;;;;;;;10.09;66.79;98825.46;125659;1096;25871;-64
2021/05/05 03:22:52;;;;;;;3.28;0.70;;;;;;;10.08;66.99;98826.72;125931;1101;22771;-63
2021/05/05 03:25:22;;;;;;;3.43;0.80;;;;;;;10.09;67.00;98822.67;125645;1096;27136;-63
2021/05/05 03:27:51;;;;;;;4.03;0.90;;;;;;;10.08;67.15;98823.93;125672;1101;22788;-64
2021/05/05 03:30:23;;;;;;;5.37;0.93;;;;;;;10.08;67.18;98826.72;125631;1096;22758;-65
2021/05/05 03:32:53;;;;;;;3.83;0.70;;;;;;;10.08;67.33;98828.73;125975;1101;22820;-63
2021/05/05 03:35:25;;;;;;;6.28;0.88;;;;;;;10.05;67.21;98836.12;125626;1101;22907;-64
2021/05/05 03:37:55;;;;;;;6.30;0.70;;;;;;;10.05;67.53;98835.35;125969;1101;23483;-64
2021/05/05 03:40:24;;;;;;;4.55;0.70;;;;;;;10.03;67.59;98833.08;125616;1102;22805;-64
2021/05/05 03:42:53;;;;;;;4.07;0.60;;;;;;;10.02;67.63;98839.14;125475;1104;24527;-64
2021/05/05 03:45:23;;;;;;;3.63;0.60;;;;;;;10.00;67.50;98828.51;125611;1096;22877;-64
2021/05/05 03:47:52;;;;;;;6.27;0.70;;;;;;;10.01;67.80;98824.47;125434;1104;22760;-63
2021/05/05 03:50:23;;;;;;;4.43;0.60;;;;;;;9.98;67.84;98822.68;125526;1101;24438;-63
2021/05/05 03:52:53;;;;;;;4.35;0.70;;;;;;;9.95;67.85;98820.92;125711;1096;22767;-63
2021/05/05 03:55:22;;;;;;;3.90;0.80;;;;;;;9.93;67.65;98819.91;126033;1102;22705;-63
2021/05/05 03:57:52;;;;;;;5.37;0.80;;;;;;;9.93;67.75;98814.34;125800;1102;22904;-63
2021/05/05 04:00:23;;;;;;;5.55;0.60;;;;;;;9.92;67.99;98816.36;125884;1101;22880;-63
2021/05/05 04:02:52;;;;;;;3.00;0.50;;;;;;;9.91;67.91;98814.82;125872;1102;22778;-64
2021/05/05 04:05:22;;;;;;;3.45;0.70;;;;;;;9.92;67.99;98816.36;125467;1104;22750;-63
2021/05/05 04:07:51;;;;;;;3.83;0.70;;;;;;;9.90;67.93;98818.89;125767;1101;22822;-63
2021/05/05 04:10:20;;;;;;;3.45;0.70;;;;;;;9.91;67.96;98828.76;125741;1101;22725;-63
2021/05/05 04:12:50;;;;;;;2.87;0.50;;;;;;;9.91;67.90;98823.19;125666;1096;27167;-63
2021/05/05 04:15:21;;;;;;;6.50;0.70;;;;;;;9.91;68.03;98825.97;125674;1102;22861;-63
2021/05/05 04:17:50;;;;;;;7.30;0.77;;;;;;;9.89;67.85;98836.13;125782;1096;26324;-67
2021/05/05 04:20:21;;;;;;;5.37;0.80;;;;;;;9.89;68.06;98838.92;125703;1096;27278;-63
2021/05/05 04:22:51;;;;;;;4.27;0.83;;;;;;;9.89;67.88;98841.70;125720;1101;22910;-64
2021/05/05 04:25:20;;;;;;;3.55;0.70;;;;;;;9.89;68.09;98850.81;125952;1101;22740;-69
2021/05/05 04:27:49;;;;;;;3.90;0.80;;;;;;;9.93;68.19;98842.95;125524;1096;26649;-63
2021/05/05 04:30:22;;;;;;;4.67;1.00;;;;;;;9.95;68.00;98842.46;125698;1101;22908;-64
2021/05/05 04:32:52;;;;;;;6.20;1.20;;;;;;;9.99;68.21;98856.91;125835;1096;22744;-64
2021/05/05 04:35:23;;;;;;;6.08;1.00;;;;;;;10.02;68.15;98855.88;125912;1102;22744;-64
2021/05/05 04:37:52;;;;;;;5.43;0.78;;;;;;;10.07;68.02;98863.48;125752;1104;22828;-63
2021/05/05 04:40:22;;;;;;;7.95;1.13;;;;;;;10.09;67.93;98847.77;125735;1096;25999;-65
2021/05/05 04:42:51;;;;;;;6.60;0.80;;;;;;;10.14;67.83;98844.22;125651;1101;22752;-67
2021/05/05 04:45:21;;;;;;;5.53;0.77;;;;;;;10.16;67.79;98838.16;125618;1096;22901;-63
2021/05/05 04:47:51;;;;;;;4.43;0.80;;;;;;;10.21;67.88;98848.53;125667;1101;22737;-64
2021/05/05 04:50:20;;;;;;;4.20;0.60;;;;;;;10.24;67.71;98861.47;125557;1104;22913;-64
2021/05/05 04:52:49;;;;;;;6.13;0.70;;;;;;;10.26;67.74;98862.45;125554;1104;25512;-64
2021/05/05 04:55:19;;;;;;;3.93;0.70;;;;;;;10.28;67.60;98854.34;125592;1096;24925;-59
2021/05/05 04:57:49;;;;;;;5.55;0.70;;;;;;;10.31;67.40;98847.75;125711;1101;22935;-59
2021/05/05 05:00:20;;;;;;;5.47;0.70;;;;;;;10.34;67.32;98857.13;125611;1101;24574;-60
2021/05/05 05:02:49;;;;;;;6.97;0.90;;;;;;;10.35;67.24;98855.84;125534;1096;22892;-60
2021/05/05 05:05:21;;;;;;;5.40;0.70;;;;;;;10.36;67.12;98849.78;127000;1096;27636;-59
2021/05/05 05:07:51;;;;;;;5.50;0.70;;;;;;;10.39;67.10;98851.53;125506;1104;22744;-60
2021/05/05 05:10:20;;;;;;;5.83;0.73;;;;;;;10.46;67.01;98851.02;125524;1102;22740;-58
2021/05/05 05:12:50;;;;;;;10.00;1.07;;;;;;;10.53;66.94;98846.94;125380;1104;22823;-63
2021/05/05 05:15:19;;;;;;;7.97;0.50;;;;;;;10.59;67.03;98851.20;125640;1096;27135;-59
2021/05/05 05:17:48;;;;;;;6.60;0.43;;;;;;;10.64;66.82;98837.75;125497;1097;25918;-68
2021/05/05 05:20:18;;;;;;;3.60;0.40;;;;;;;10.67;66.65;98845.11;125537;1101;22744;-60
2021/05/05 05:22:49;;;;;;;7.13;0.70;;;;;;;10.70;66.50;98858.05;125323;1104;23618;-58
2021/05/05 05:25:19;;;;;;;4.20;0.60;;;;;;;10.71;66.15;98854.73;125760;1101;23791;-59
2021/05/05 05:27:48;;;;;;;4.77;0.80;;;;;;;10.73;66.21;98857.00;125610;1101;22920;-59
2021/05/05 05:30:20;;;;;;;6.45;0.90;;;;;;;10.77;65.81;98849.89;125511;1101;22876;-58
2021/05/05 05:32:50;;;;;;;5.80;0.40;;;;;;;10.82;65.89;98851.14;128467;1102;22747;-62
2021/05/05 05:35:20;;;;;;;5.05;0.60;;;;;;;10.88;65.77;98854.67;125632;1102;22768;-61
2021/05/05 05:37:49;;;;;;;6.40;0.60;;;;;;;10.92;65.89;98855.16;126145;1096;22803;-60
2021/05/05 05:40:19;;;;;;;5.98;0.58;;;;;;;10.96;65.89;98861.23;125695;1101;22740;-59
2021/05/05 05:42:52;;;;;;;7.85;0.60;;;;;;;11.03;65.75;98857.88;125721;1096;27313;-59
2021/05/05 05:45:21;;;;;;;3.40;0.70;;;;;;;11.08;65.97;98843.91;125660;1101;22740;-60
2021/05/05 05:47:50;;;;;;;6.43;0.73;;;;;;;11.18;65.87;98856.28;125500;1096;24491;-59
2021/05/05 05:50:21;;;;;;;7.60;0.57;;;;;;;11.25;65.52;98855.75;126069;1101;22764;-59
2021/05/05 05:52:51;;;;;;;7.83;0.80;;;;;;;11.30;65.55;98852.14;127020;1101;22753;-60
2021/05/05 05:55:21;;;;;;;4.67;0.70;;;;;;;11.36;65.25;98854.89;127718;1104;23070;-60
2021/05/05 05:57:52;;;;;;;8.20;0.60;;;;;;;11.39;65.16;98854.64;127477;1096;26685;-59
2021/05/05 06:00:23;;;;;;;6.60;0.50;;;;;;;11.42;65.44;98855.64;126333;1104;22722;-59
2021/05/05 06:02:53;;;;;;;3.73;0.60;;;;;;;11.44;65.30;98855.88;126242;1102;24167;-61
2021/05/05 06:05:23;;;;;;;3.63;0.47;;;;;;;11.45;64.98;98851.80;126051;1096;27783;-61
2021/05/05 06:07:54;;;;;;;4.03;0.47;;;;;;;11.47;65.03;98863.22;126226;1096;22756;-59
2021/05/05 06:10:22;;;;;;;;;;;;;;;11.50;65.33;98858.63;126021;1101;24846;-59
2021/05/05 06:12:52;;;;;;;6.43;0.60;;;;;;;11.51;65.11;98858.11;125854;1096;21522;-59
2021/05/05 06:15:22;;;;;;;5.45;0.55;;;;;;;11.54;65.07;98851.49;125791;1096;27654;-60
2021/05/05 06:17:52;;;;;;;6.10;0.70;;;;;;;11.58;65.18;98843.58;126142;1096;27160;-61
2021/05/05 06:20:21;;;;;;;3.20;0.70;;;;;;;11.65;65.01;98842.27;126156;1096;22732;-61
2021/05/05 06:22:51;;;;;;;5.70;0.70;;;;;;;11.74;65.05;98844.75;126093;1101;22737;-60
2021/05/05 06:25:20;;;;;;;4.30;0.75;;;;;;;11.82;64.99;98846.46;126098;1096;26290;-59
2021/05/05 06:27:50;;;;;;;3.50;0.40;;;;;;;11.89;64.86;98843.11;126054;1104;23621;-59
2021/05/05 06:30:22;;;;;;;4.40;0.68;;;;;;;11.95;64.42;98852.20;126255;1096;26197;-60
2021/05/05 06:32:51;;;;;;;5.37;0.70;;;;;;;12.01;64.54;98852.91;126050;1102;22765;-60
2021/05/05 06:35:21;;;;;;;5.73;0.47;;;;;;;12.05;64.44;98856.19;125926;1097;27271;-61
2021/05/05 06:37:50;;;;;;;3.20;0.40;;;;;;;12.06;63.97;98854.15;125838;1104;22760;-60
2021/05/05 06:40:19;;;;;;;4.30;0.60;;;;;;;12.06;62.63;98846.49;125918;1096;26059;-61
2021/05/05 06:42:49;;;;;;;7.87;0.63;;;;;;;12.04;63.61;98854.65;126015;1104;22721;-60
2021/05/05 06:45:20;;;;;;;5.83;0.60;;;;;;;12.07;63.82;98847.27;125955;1096;27247;-61
2021/05/05 06:47:50;;;;;;;3.10;0.50;;;;;;;12.11;63.76;98848.49;126054;1101;22744;-60
2021/05/05 06:50:20;;;;;;;5.35;0.70;;;;;;;12.18;63.75;98847.93;125987;1096;28421;-61
2021/05/05 06:52:48;;;;;;;;;;;;;;;12.23;63.63;98843.53;125986;1096;26228;-61
2021/05/05 06:55:18;;;;;;;4.70;0.70;;;;;;;12.25;63.44;98852.16;125939;1101;21474;-59
2021/05/05 06:57:48;;;;;;;3.75;0.65;;;;;;;12.30;63.11;98862.55;126159;1101;22726;-61
2021/05/05 07:00:20;;;;;;;3.70;0.63;;;;;;;12.30;63.18;98870.95;125926;1102;25441;-61
2021/05/05 07:02:49;;;;;;;3.35;0.60;;;;;;;12.34;63.38;98857.42;126056;1101;22992;-61
2021/05/05 07:05:18;;;;;;;3.47;0.67;;;;;;;12.38;63.09;98860.69;125897;1096;22737;-59
2021/05/05 07:07:48;;;;;;;5.60;0.83;;;;;;;12.44;62.94;98858.59;125910;1096;24108;-61
2021/05/05 07:10:21;;;;;;;5.03;0.70;;;;;;;12.47;62.73;98851.95;126105;1101;23264;-61
2021/05/05 07:12:51;;;;;;;2.60;0.60;;;;;;;12.49;62.70;98862.62;125894;1096;22738;-61
2021/05/05 07:15:20;;;;;;;4.83;1.05;;;;;;;12.49;62.34;98854.22;126122;1096;22744;-59
2021/05/05 07:17:52;;;;;;;2.40;0.60;;;;;;;12.50;62.39;98855.72;126034;1096;27093;-62
2021/05/05 07:20:22;;;;;;;2.75;0.50;;;;;;;12.49;61.50;98859.81;126028;1096;26356;-61
2021/05/05 07:22:51;;;;;;;6.40;0.68;;;;;;;12.47;61.73;98853.98;126193;1104;24604;-61
2021/05/05 07:25:21;;;;;;;5.27;0.60;;;;;;;12.49;62.18;98854.22;126073;1101;23464;-61
2021/05/05 07:27:51;;;;;;;4.15;0.75;;;;;;;12.53;62.19;98863.08;126167;1096;27247;-60
2021/05/05 07:30:22;;;;;;;2.03;0.40;;;;;;;12.56;61.41;98850.84;126069;1101;22754;-60
2021/05/05 07:32:54;;;;;;;7.10;0.90;;;;;;;12.57;61.27;98852.34;126134;1101;25287;-61
2021/05/05 07:35:24;;;;;;;6.43;0.50;;;;;;;12.58;60.62;98832.22;126107;1096;24410;-60
2021/05/05 07:38:21;;;;;;;4.13;0.60;;;;;;;12.62;61.09;98834.73;126009;1104;23714;-60
2021/05/05 07:46:27;;;;;;;4.40;0.50;;;;;;;12.71;60.60;98831.56;126038;1096;27269;-59
2021/05/05 07:48:59;;;;;;;2.80;0.70;;;;;;;12.75;60.95;98832.02;126148;1101;22803;-59
2021/05/05 07:51:29;;;;;;;5.90;0.60;;;;;;;12.77;60.60;98826.64;126239;1102;22771;-60
2021/05/05 07:53:58;;;;;;;4.08;0.50;;;;;;;12.83;60.03;98822.49;126128;1104;22758;-61
2021/05/05 07:56:28;;;;;;;3.93;0.30;;;;;;;12.82;58.72;98823.80;126115;1104;22772;-61
2021/05/05 07:59:01;;;;;;;3.48;0.48;;;;;;;12.80;59.54;98806.00;126052;1102;22737;-60
2021/05/05 08:01:32;;;;;;;1.47;0.43;;;;;;;12.82;59.49;98811.83;126040;1102;22907;-61
2021/05/05 08:04:04;;;;;;;1.80;0.43;;;;;;;12.83;59.34;98804.92;126074;1102;23632;-60
2021/05/05 08:06:34;;;;;;;3.13;0.40;;;;;;;12.84;58.60;98812.05;126098;1104;22808;-61
2021/05/05 08:09:05;;;;;;;6.88;0.50;;;;;;;12.84;59.30;98823.26;126157;1101;22703;-61
2021/05/05 08:11:35;;;;;;;5.10;0.60;;;;;;;12.87;59.48;98827.79;126165;1096;27166;-61
2021/05/05 08:14:05;;;;;;;4.93;0.60;;;;;;;12.88;59.24;98818.88;126242;1096;25843;-59
2021/05/05 08:16:34;;;;;;;3.18;0.53;;;;;;;12.93;59.01;98808.89;126040;1104;22765;-61
2021/05/05 08:19:04;;;;;;;4.90;0.50;;;;;;;12.98;59.03;98817.21;126061;1101;22796;-59
2021/05/05 08:21:34;;;;;;;3.97;0.33;;;;;;;13.00;58.32;98811.08;126066;1101;22823;-60
2021/05/05 08:24:06;;;;;;;5.48;0.53;;;;;;;13.03;57.78;98817.66;126073;1102;22820;-59
2021/05/05 08:26:35;;;;;;;3.15;0.45;;;;;;;13.07;57.89;98818.91;126070;1104;22809;-61
2021/05/05 08:29:05;;;;;;;3.50;0.60;;;;;;;13.08;57.50;98812.00;126018;1104;22732;-60
2021/05/05 08:31:35;;;;;;;4.77;0.50;;;;;;;13.11;57.77;98822.16;126110;1104;22740;-60
2021/05/05 08:34:05;;;;;;;7.38;0.60;;;;;;;13.13;57.53;98822.39;126434;1104;22966;-59
2021/05/05 08:36:34;;;;;;;6.08;0.60;;;;;;;13.16;57.90;98828.98;126180;1102;22764;-59
2021/05/05 08:39:05;;;;;;;2.75;0.45;;;;;;;13.13;57.30;98836.40;126023;1102;22730;-61
2021/05/05 08:41:33;;;;;;;;;;;;;;;13.11;57.51;98843.81;126305;1096;26024;-59
2021/05/05 08:44:04;;;;;;;4.75;0.50;;;;;;;13.10;57.76;98854.26;126112;1101;24413;-61
2021/05/05 08:46:35;;;;;;;;;;;;;;;13.08;57.75;98845.63;126217;1101;22787;-59
2021/05/05 08:49:05;;;;;;;2.97;0.50;;;;;;;13.05;57.13;98837.53;126064;1101;24195;-60
2021/05/05 08:51:36;;;;;;;3.43;0.50;;;;;;;13.03;57.52;98845.68;126133;1101;22751;-61
2021/05/05 08:54:07;;;;;;;6.00;0.70;;;;;;;13.03;57.69;98837.27;126197;1096;26005;-63
2021/05/05 08:56:39;;;;;;;5.10;0.57;;;;;;;13.02;58.04;98833.71;126070;1104;22738;-61
2021/05/05 08:59:10;;;;;;;6.55;0.60;;;;;;;13.03;57.80;98837.27;126088;1104;22844;-61
2021/05/05 09:01:41;;;;;;;4.73;0.60;;;;;;;12.98;57.58;98836.82;126103;1104;23029;-61
2021/05/05 09:04:12;;;;;;;2.65;0.45;;;;;;;12.94;57.76;98841.97;126119;1096;22802;-59
2021/05/05 09:06:50;;;;;;;4.28;0.40;;;;;;;12.91;58.19;98839.48;126195;1096;25726;-61
2021/05/05 09:09:37;;;;;;;5.03;0.50;;;;;;;12.87;57.96;98838.99;126205;1104;22819;-59
2021/05/05 09:12:18;;;;;;;4.17;0.50;;;;;;;12.83;57.89;98850.50;126140;1102;22932;-60
2021/05/05 09:14:59;;;;;;;3.80;0.50;;;;;;;12.75;57.31;98843.22;126084;1096;22755;-61
2021/05/05 09:17:30;;;;;;;5.80;0.50;;;;;;;12.70;57.43;98842.02;126064;1096;22747;-61
2021/05/05 09:20:20;;;;;;;6.25;1.00;;;;;;;12.68;57.65;98841.03;126184;1104;22743;-61
2021/05/05 09:22:52;;;;;;;3.38;0.50;;;;;;;12.71;57.44;98831.56;126107;1101;23105;-59
2021/05/05 09:25:25;;;;;;;5.40;0.60;;;;;;;12.70;56.71;98825.22;126100;1101;22822;-61
2021/05/05 09:28:15;;;;;;;3.70;0.50;;;;;;;12.71;56.56;98834.36;126016;1104;22766;-61
2021/05/05 09:30:47;;;;;;;3.28;0.55;;;;;;;12.76;56.34;98834.31;126051;1104;22836;-60
2021/05/05 09:33:27;;;;;;;2.85;0.40;;;;;;;12.81;56.30;98841.88;126020;1102;22840;-61
2021/05/05 09:35:58;;;;;;;8.13;0.77;;;;;;;12.88;56.12;98846.89;125893;1096;22872;-61
2021/05/05 09:38:45;;;;;;;2.05;0.35;;;;;;;12.96;56.50;98858.23;126014;1096;23497;-59
2021/05/05 09:41:19;;;;;;;2.23;0.60;;;;;;;13.02;56.05;98850.52;126065;1104;22744;-60
2021/05/05 09:43:49;;;;;;;5.85;0.40;;;;;;;13.09;56.05;98852.76;126042;1096;25966;-59
2021/05/05 09:46:43;;;;;;;;;;;;;;;13.12;55.80;98854.48;126207;1104;22747;-62
2021/05/05 09:49:21;;;;;;;1.77;0.30;;;;;;;13.12;53.36;98854.48;126257;1104;21468;-60
2021/05/05 09:51:55;;;;;;;4.73;0.63;;;;;;;13.08;53.92;98864.50;126220;1096;22737;-60
2021/05/05 09:54:37;;;;;;;1.45;0.20;;;;;;;12.99;53.26;98860.00;126100;1096;22719;-61
2021/05/05 09:57:20;;;;;;;3.70;0.30;;;;;;;12.93;53.72;98862.11;126148;1101;23758;-61
2021/05/05 10:00:09;;;;;;;4.10;0.50;;;;;;;12.87;53.51;98864.96;126175;1096;24485;-61
2021/05/05 10:02:46;;;;;;;9.85;0.45;;;;;;;12.80;53.71;98864.81;126154;1104;24197;-61
2021/05/05 10:05:18;;;;;;;6.40;0.50;;;;;;;12.77;53.94;98855.41;126055;1096;25866;-59
2021/05/05 10:08:01;;;;;;;2.40;0.40;;;;;;;12.81;54.35;98861.47;125963;1096;26489;-59
2021/05/05 10:10:32;;;;;;;4.80;0.50;;;;;;;12.81;54.25;98861.47;126308;1101;22805;-61
2021/05/05 10:13:03;;;;;;;5.55;0.50;;;;;;;12.81;53.62;98855.11;126370;1096;25867;-61
2021/05/05 10:15:43;;;;;;;2.17;0.40;;;;;;;12.79;53.63;98858.45;125983;1101;22758;-62
2021/05/05 10:18:23;;;;;;;3.27;0.50;;;;;;;12.80;54.36;98856.41;126384;1104;22815;-61
2021/05/05 10:20:54;;;;;;;4.00;0.38;;;;;;;12.74;53.57;98856.48;127157;1101;22703;-62
2021/05/05 10:23:23;;;;;;;;;;;;;;;12.69;53.61;98857.30;127227;1104;22738;-60
2021/05/05 10:25:53;;;;;;;3.10;0.50;;;;;;;12.64;53.92;98860.91;126285;1101;21464;-61
2021/05/05 10:28:22;;;;;;;;;;;;;;;12.59;54.00;98855.38;126104;1102;22758;-60
2021/05/05 10:30:53;;;;;;;4.53;0.60;;;;;;;12.56;54.57;98862.05;126003;1101;24226;-61
2021/05/05 10:33:26;;;;;;;5.43;0.63;;;;;;;12.57;54.31;98874.74;126055;1101;22737;-62
2021/05/05 10:35:55;;;;;;;11.20;0.90;;;;;;;12.54;54.13;98873.01;125922;1101;22765;-63
2021/05/05 10:38:36;;;;;;;5.23;0.50;;;;;;;12.56;54.82;98867.64;125773;1096;26263;-60
2021/05/05 10:41:11;;;;;;;4.17;0.60;;;;;;;12.57;54.69;98871.94;126780;1096;26232;-63
2021/05/05 10:43:52;;;;;;;2.83;0.70;;;;;;;12.60;55.03;98871.64;126934;1101;22787;-63
2021/05/05 10:46:33;;;;;;;4.03;0.60;;;;;;;12.62;54.94;98871.14;126116;1101;22744;-62
2021/05/05 10:49:11;;;;;;;6.83;0.67;;;;;;;12.57;55.27;98875.50;126057;1096;22781;-61
2021/05/05 10:52:00;;;;;;;4.90;0.60;;;;;;;12.60;55.46;98876.50;126009;1101;22825;-62
2021/05/05 10:54:51;;;;;;;4.97;0.60;;;;;;;12.62;55.68;98887.94;126068;1101;22898;-60
2021/05/05 10:57:24;;;;;;;10.75;0.70;;;;;;;12.60;55.31;98888.44;126060;1101;22721;-62
2021/05/05 11:00:14;;;;;;;4.57;0.73;;;;;;;12.59;55.41;98886.17;126115;1096;27087;-61
2021/05/05 11:02:47;;;;;;;;;;;;;;;12.57;55.68;98885.94;126283;1101;25600;-62
2021/05/05 11:05:19;;;;;;;3.60;0.60;;;;;;;12.56;55.51;98890.03;126182;1101;21490;-62
2021/05/05 11:07:55;;;;;;;5.17;0.70;;;;;;;12.54;55.61;98875.81;126194;1101;22864;-61
2021/05/05 11:10:52;;;;;;;7.10;0.80;;;;;;;12.55;55.55;98885.70;126111;1096;31033;-62
2021/05/05 11:13:41;;;;;;;5.35;0.90;;;;;;;12.50;56.03;98880.91;126120;1104;23050;-62
2021/05/05 11:16:11;;;;;;;3.90;0.90;;;;;;;12.44;56.35;98880.22;125852;1100;22722;-62
2021/05/05 11:18:46;;;;;;;8.73;0.90;;;;;;;12.35;56.02;98883.38;126024;1104;22873;-61
2021/05/05 11:21:40;;;;;;;6.40;1.00;;;;;;;12.28;56.24;98886.74;125921;1100;23256;-60
2021/05/05 11:24:32;;;;;;;4.95;1.00;;;;;;;12.21;56.28;98881.73;126040;1104;22980;-63
2021/05/05 11:27:05;;;;;;;6.03;0.93;;;;;;;12.13;57.04;98895.52;125910;1104;22773;-63
2021/05/05 11:29:37;;;;;;;3.40;0.83;;;;;;;12.08;57.25;98885.16;125905;1104;22820;-63
2021/05/05 11:32:09;;;;;;;6.63;1.00;;;;;;;12.05;56.96;98872.97;126073;1104;22766;-63
2021/05/05 11:34:41;;;;;;;7.40;1.00;;;;;;;12.06;57.25;98879.33;125718;1100;22769;-63
2021/05/05 11:37:14;;;;;;;4.83;0.83;;;;;;;12.06;57.12;98877.27;125505;1107;22758;-63
2021/05/05 11:39:45;;;;;;;7.27;1.10;;;;;;;12.07;57.16;98881.59;125884;1104;22773;-64
2021/05/05 11:42:16;;;;;;;5.10;1.00;;;;;;;12.08;57.67;98880.30;125505;1100;22845;-62
2021/05/05 11:44:48;;;;;;;6.00;1.30;;;;;;;12.14;57.45;98881.03;125355;1100;22759;-63
2021/05/05 11:47:20;;;;;;;7.23;1.00;;;;;;;12.19;57.74;98873.84;125325;1107;24884;-63
2021/05/05 11:49:54;;;;;;;6.63;0.90;;;;;;;12.29;57.91;98869.42;125272;1107;22798;-62
2021/05/05 11:52:29;;;;;;;8.85;1.30;;;;;;;12.37;57.63;98859.19;125682;1097;28325;-63
2021/05/05 11:55:00;;;;;;;8.30;1.50;;;;;;;12.50;58.00;98873.28;126058;1104;22812;-63